TimeEDT,TemperatureF,Dew PointF,Humidity,Sea Level PressureIn,VisibilityMPH,Wind Direction,Wind SpeedMPH,Gust SpeedMPH,PrecipitationIn,Events,Conditions,WindDirDegrees,DateUTC
12:50 AM,44.6,44.6,100,-9999,0.0,West,43.7,-,N/A,Fog,Fog,260,2012-10-06 04:50:00
1:50 AM,44.6,44.6,100,-9999,0.0,West,46.0,-,N/A,Fog,Fog,270,2012-10-06 05:50:00
2:47 AM,44.6,44.6,100,-9999,0.0,West,46.0,54.1,N/A,Fog,Fog,260,2012-10-06 06:47:00
3:50 AM,44.6,44.6,100,-9999,0.0,West,42.6,-,N/A,Fog,Fog,260,2012-10-06 07:50:00
4:50 AM,44.6,44.6,100,-9999,0.0,WSW,40.3,-,N/A,Fog,Fog,240,2012-10-06 08:50:00
5:47 AM,44.6,44.6,100,-9999,0.0,SW,39.1,46.0,N/A,Fog,Fog,230,2012-10-06 09:47:00
6:53 AM,44.6,44.6,100,-9999,0.0,SSW,33.4,51.8,N/A,Fog,Fog,210,2012-10-06 10:53:00
7:54 AM,46.4,46.4,100,-9999,0.0,SSW,36.8,48.3,N/A,Fog,Fog,200,2012-10-06 11:54:00
8:50 AM,46.4,46.4,100,-9999,0.0,SSW,35.7,47.2,N/A,Fog,Fog,210,2012-10-06 12:50:00
9:50 AM,44.6,44.6,100,-9999,0.0,SW,40.3,55.2,N/A,Fog,Fog,220,2012-10-06 13:50:00
10:49 AM,44.6,44.6,100,-9999,0.0,WSW,50.6,57.5,N/A,Fog,Fog,240,2012-10-06 14:49:00
11:47 AM,46.4,46.4,100,-9999,0.0,SW,46.0,58.7,N/A,Fog,Fog,230,2012-10-06 15:47:00
12:48 PM,44.6,44.6,100,-9999,0.0,SW,46.0,58.7,N/A,Fog,Fog,230,2012-10-06 16:48:00
1:50 PM,44.6,44.6,100,-9999,0.0,SW,44.9,55.2,N/A,Fog-Rain,Light Rain,230,2012-10-06 17:50:00
2:49 PM,44.6,44.6,100,-9999,0.0,WSW,33.4,-,N/A,Fog-Rain,Rain,250,2012-10-06 18:49:00
3:50 PM,37.4,37.4,100,-9999,0.1,WNW,31.1,-,N/A,Fog-Rain,Light Rain,290,2012-10-06 19:50:00
4:53 PM,33.8,33.8,100,-9999,0.1,West,41.4,-,N/A,Fog-Rain,Light Rain,270,2012-10-06 20:53:00
5:49 PM,33.8,33.8,100,-9999,0.0,West,48.3,59.8,N/A,Fog,Fog,270,2012-10-06 21:49:00
6:50 PM,32.0,32.0,100,-9999,0.0,West,39.1,-,N/A,Fog,Fog,280,2012-10-06 22:50:00
7:49 PM,32.0,32.0,100,-9999,0.0,WNW,57.5,63.3,N/A,Fog,Light Freezing Fog,290,2012-10-06 23:49:00
8:50 PM,28.4,28.4,100,-9999,0.0,West,56.4,64.4,N/A,Fog,Light Freezing Fog,280,2012-10-07 00:50:00
9:51 PM,28.4,28.4,100,-9999,0.0,WNW,59.8,67.9,N/A,Fog,Light Freezing Fog,290,2012-10-07 01:51:00
10:55 PM,28.4,28.4,100,-9999,0.0,West,57.5,-,N/A,Fog,Light Freezing Fog,270,2012-10-07 02:55:00
11:52 PM,26.6,26.6,100,-9999,0.0,West,52.9,59.8,N/A,Fog,Light Freezing Fog,280,2012-10-07 03:52:00